Time;durP1;ratioP1;P1;durP2;ratioP2;P2;SDS_P1;SDS_P2;PMS_P1;PMS_P2;Temp;Humidity;BMP_temperature;BMP_pressure;BME280_temperature;BME280_humidity;BME280_pressure;Samples;Min_cycle;Max_cycle;Signal;HPM_P1;HPM_P2
2022/09/20 00:00:36;;;;;;;3.83;2.42;;;20.90;58.00;;;;;;6126452;28;80337;-50
2022/09/20 00:03:37;;;;;;;4.40;2.42;;;20.90;58.10;;;;;;6110004;28;80453;-48
2022/09/20 00:06:37;;;;;;;3.00;2.35;;;20.90;58.10;;;;;;6130921;28;85330;-49
2022/09/20 00:09:39;;;;;;;4.68;2.53;;;20.90;58.20;;;;;;6125536;28;80979;-49
2022/09/20 00:12:40;;;;;;;3.92;2.42;;;20.90;58.20;;;;;;6136050;28;85859;-59
2022/09/20 00:15:41;;;;;;;5.45;2.75;;;20.90;58.20;;;;;;6119724;28;82948;-59
2022/09/20 00:18:41;;;;;;;7.03;3.03;;;20.90;58.30;;;;;;6121916;28;80948;-60
2022/09/20 00:21:42;;;;;;;3.95;2.63;;;20.90;58.30;;;;;;6115248;28;80890;-60
2022/09/20 00:24:42;;;;;;;3.65;2.78;;;20.90;58.30;;;;;;6116827;28;81277;-60
2022/09/20 00:27:43;;;;;;;4.25;2.58;;;20.90;58.30;;;;;;6102102;28;80154;-60
2022/09/20 00:30:43;;;;;;;5.03;2.80;;;20.90;58.30;;;;;;6105030;28;80472;-60
2022/09/20 00:37:03;;;;;;;4.78;2.50;;;20.90;58.30;;;;;;6118077;28;81919;-60
2022/09/20 00:40:04;;;;;;;4.63;3.13;;;20.90;58.20;;;;;;6127141;28;81078;-60
2022/09/20 00:43:04;;;;;;;3.65;2.47;;;20.90;58.30;;;;;;6122585;28;81475;-60
2022/09/20 00:46:05;;;;;;;4.45;2.65;;;20.90;58.20;;;;;;6113269;28;86157;-60
2022/09/20 00:49:05;;;;;;;4.60;2.65;;;20.90;58.30;;;;;;6118684;28;81195;-60
2022/09/20 00:52:06;;;;;;;7.25;2.80;;;20.90;58.30;;;;;;6123884;28;86383;-60
2022/09/20 00:55:06;;;;;;;3.45;2.67;;;20.90;58.20;;;;;;6118714;28;81105;-60
2022/09/20 00:58:07;;;;;;;4.28;2.70;;;20.90;58.20;;;;;;6121720;28;81070;-60
2022/09/20 01:01:07;;;;;;;9.90;3.22;;;20.90;58.30;;;;;;6121922;28;80707;-60
2022/09/20 01:04:07;;;;;;;4.50;2.90;;;20.90;58.20;;;;;;6123125;28;80363;-60
2022/09/20 01:07:08;;;;;;;7.20;3.60;;;20.90;58.30;;;;;;6128038;28;83830;-60
2022/09/20 01:10:08;;;;;;;4.00;2.60;;;20.90;58.30;;;;;;6119981;28;80450;-60
2022/09/20 01:13:09;;;;;;;5.47;3.28;;;20.90;58.40;;;;;;6120500;28;81201;-60
2022/09/20 01:16:09;;;;;;;4.70;3.05;;;20.90;58.50;;;;;;6128596;28;80541;-60
2022/09/20 01:19:10;;;;;;;4.20;2.88;;;20.90;58.50;;;;;;6125554;28;80534;-60
2022/09/20 01:22:10;;;;;;;4.85;2.72;;;20.90;58.50;;;;;;6144656;28;81382;-60
2022/09/20 01:25:11;;;;;;;3.90;3.00;;;20.90;58.60;;;;;;6137399;28;83424;-50
2022/09/20 01:28:11;;;;;;;4.80;3.13;;;20.90;58.60;;;;;;6119015;28;80241;-54
2022/09/20 01:31:12;;;;;;;6.20;3.75;;;20.90;58.60;;;;;;6122539;28;84811;-55
2022/09/20 01:34:12;;;;;;;5.38;2.83;;;20.90;58.70;;;;;;6130530;28;83875;-52
2022/09/20 01:37:13;;;;;;;4.78;2.78;;;20.90;58.80;;;;;;6136126;28;80933;-52
2022/09/20 01:40:13;;;;;;;3.92;3.15;;;20.80;58.90;;;;;;6140150;28;84738;-52
2022/09/20 01:43:14;;;;;;;4.70;3.05;;;20.90;58.90;;;;;;6150961;28;80448;-53
2022/09/20 01:46:14;;;;;;;4.88;3.20;;;20.80;58.90;;;;;;6130327;28;84829;-54
2022/09/20 01:49:15;;;;;;;6.55;3.35;;;20.90;58.90;;;;;;6147758;28;81361;-53
2022/09/20 01:52:15;;;;;;;5.50;2.67;;;20.90;59.00;;;;;;6153297;28;80102;-51
2022/09/20 01:55:16;;;;;;;7.18;3.13;;;20.90;59.10;;;;;;6149809;28;80875;-54
2022/09/20 01:58:16;;;;;;;6.93;3.53;;;20.80;59.10;;;;;;6132355;28;81689;-55
2022/09/20 02:01:17;;;;;;;4.82;3.33;;;20.80;59.10;;;;;;6127462;28;80620;-58
2022/09/20 02:04:17;;;;;;;6.57;3.00;;;20.90;59.10;;;;;;6139933;28;84947;-58
2022/09/20 02:07:19;;;;;;;4.03;3.10;;;20.90;59.20;;;;;;6132591;28;80874;-59
2022/09/20 02:10:19;;;;;;;8.05;3.88;;;20.80;59.10;;;;;;6139579;28;80704;-58
2022/09/20 02:13:19;;;;;;;7.47;3.08;;;20.80;59.10;;;;;;6135164;28;80009;-58
2022/09/20 02:16:20;;;;;;;4.38;2.88;;;20.90;59.20;;;;;;6153837;28;81421;-57
2022/09/20 02:19:20;;;;;;;4.05;2.92;;;20.80;59.10;;;;;;6148660;28;80372;-51
2022/09/20 02:22:21;;;;;;;4.68;3.22;;;20.80;59.10;;;;;;6151389;28;84879;-53
2022/09/20 02:25:21;;;;;;;5.30;3.05;;;20.80;59.10;;;;;;6146928;28;80134;-51
2022/09/20 02:28:22;;;;;;;5.32;3.10;;;20.80;59.10;;;;;;6141683;28;80701;-52
2022/09/20 02:31:23;;;;;;;5.18;3.05;;;20.80;59.10;;;;;;6142418;28;80536;-51
2022/09/20 02:34:23;;;;;;;3.75;2.88;;;20.80;59.10;;;;;;6147645;28;80824;-52
2022/09/20 02:37:24;;;;;;;5.60;3.15;;;20.90;59.10;;;;;;6142148;28;81550;-51
2022/09/20 02:40:24;;;;;;;4.15;3.20;;;20.90;59.20;;;;;;6142930;28;80040;-53
2022/09/20 02:43:25;;;;;;;5.60;3.28;;;20.90;59.30;;;;;;6123533;28;81184;-51
2022/09/20 02:46:27;;;;;;;4.70;2.80;;;20.80;59.30;;;;;;6123381;28;80589;-51
2022/09/20 02:49:28;;;;;;;6.35;3.55;;;20.80;59.30;;;;;;6119276;28;80293;-50
2022/09/20 02:52:28;;;;;;;4.40;2.70;;;20.80;59.30;;;;;;6121837;28;80840;-52
2022/09/20 02:55:29;;;;;;;3.75;2.90;;;20.80;59.30;;;;;;6123009;28;80539;-59
2022/09/20 02:58:29;;;;;;;4.13;2.67;;;20.80;59.30;;;;;;6125924;28;80515;-59
2022/09/20 03:01:30;;;;;;;3.92;3.08;;;20.80;59.40;;;;;;6123212;28;80189;-59
2022/09/20 03:04:30;;;;;;;5.63;3.38;;;20.80;59.40;;;;;;6125681;28;81056;-59
2022/09/20 03:07:31;;;;;;;3.70;2.72;;;20.80;59.60;;;;;;6122868;28;80552;-59
2022/09/20 03:10:31;;;;;;;4.97;3.00;;;20.80;59.50;;;;;;6125548;28;80433;-59
2022/09/20 03:13:32;;;;;;;4.40;3.30;;;20.80;59.50;;;;;;6115420;28;80302;-60
2022/09/20 03:16:32;;;;;;;5.22;3.63;;;20.80;59.40;;;;;;6131538;28;81366;-58
2022/09/20 03:19:33;;;;;;;3.80;2.85;;;20.80;59.40;;;;;;6129871;28;79989;-57
2022/09/20 03:22:33;;;;;;;3.88;2.85;;;20.80;59.40;;;;;;6127172;28;86983;-58
2022/09/20 03:25:34;;;;;;;5.05;3.42;;;20.80;59.40;;;;;;6125464;28;80216;-58
2022/09/20 03:28:34;;;;;;;6.90;3.13;;;20.80;59.40;;;;;;6116665;28;87434;-58
2022/09/20 03:31:35;;;;;;;5.10;3.42;;;20.80;59.40;;;;;;6126841;28;80975;-59
2022/09/20 03:34:35;;;;;;;4.13;2.88;;;20.80;59.50;;;;;;6127590;28;81164;-57
2022/09/20 03:37:36;;;;;;;5.03;3.17;;;20.80;59.50;;;;;;6126624;28;80351;-57
2022/09/20 03:40:36;;;;;;;4.30;2.88;;;20.80;59.60;;;;;;6127997;28;80127;-57
2022/09/20 03:43:37;;;;;;;4.55;3.08;;;20.80;59.60;;;;;;6128292;28;80443;-54
2022/09/20 03:46:37;;;;;;;4.10;3.03;;;20.80;59.70;;;;;;6125126;28;80437;-57
2022/09/20 03:49:40;;;;;;;5.50;3.03;;;20.80;59.70;;;;;;6125908;28;80472;-56
2022/09/20 03:52:41;;;;;;;4.75;3.20;;;20.80;59.70;;;;;;6127641;28;80514;-51
2022/09/20 03:55:41;;;;;;;8.77;2.90;;;20.80;59.70;;;;;;6126360;28;81499;-53
2022/09/20 03:58:42;;;;;;;3.67;2.90;;;20.80;59.70;;;;;;6128655;28;80158;-54
2022/09/20 04:01:45;;;;;;;3.85;2.88;;;20.80;59.80;;;;;;6119309;28;80117;-55
2022/09/20 04:04:45;;;;;;;4.45;3.30;;;20.80;59.70;;;;;;6104151;28;82211;-49
2022/09/20 04:07:46;;;;;;;4.30;3.17;;;20.80;59.70;;;;;;6110746;28;82264;-53
2022/09/20 04:10:46;;;;;;;4.80;3.03;;;20.80;59.70;;;;;;6110055;28;81145;-58
2022/09/20 04:13:47;;;;;;;5.18;3.40;;;20.80;59.70;;;;;;6114941;28;80423;-58
2022/09/20 04:16:47;;;;;;;5.25;3.28;;;20.80;59.80;;;;;;6114145;28;80313;-58
2022/09/20 04:19:48;;;;;;;6.28;3.55;;;20.80;59.80;;;;;;6117471;28;81332;-58
2022/09/20 04:22:50;;;;;;;5.63;2.95;;;20.80;59.90;;;;;;6123816;28;83252;-59
2022/09/20 04:25:50;;;;;;;4.80;3.17;;;20.80;59.70;;;;;;6120436;28;83766;-58
2022/09/20 04:28:51;;;;;;;3.22;2.85;;;20.80;59.70;;;;;;6117629;28;84775;-58
2022/09/20 04:31:52;;;;;;;6.00;3.35;;;20.80;59.70;;;;;;6132680;28;81725;-58
2022/09/20 04:38:04;;;;;;;4.45;3.25;;;20.70;59.60;;;;;;6163538;28;80225;-58
2022/09/20 04:41:04;;;;;;;3.95;3.15;;;20.70;59.60;;;;;;6168827;28;80324;-58
2022/09/20 04:44:06;;;;;;;6.88;3.33;;;20.70;59.60;;;;;;6175798;28;80519;-58
2022/09/20 04:47:07;;;;;;;4.53;2.88;;;20.80;59.60;;;;;;6174637;28;81101;-55
2022/09/20 04:50:09;;;;;;;5.55;3.10;;;20.70;59.60;;;;;;6155608;28;80232;-55
2022/09/20 04:53:11;;;;;;;3.38;2.97;;;20.80;59.60;;;;;;6158105;28;83422;-55
2022/09/20 04:56:13;;;;;;;6.05;3.38;;;20.80;59.50;;;;;;6169728;28;82873;-57
2022/09/20 04:59:13;;;;;;;6.65;3.22;;;20.80;59.90;;;;;;6170207;28;80827;-55
2022/09/20 05:02:14;;;;;;;5.20;2.92;;;20.80;60.00;;;;;;6172359;28;80817;-58
2022/09/20 05:05:14;;;;;;;4.55;2.63;;;20.90;60.50;;;;;;6173822;28;84564;-58
2022/09/20 05:08:15;;;;;;;5.35;2.85;;;20.90;60.40;;;;;;6174159;28;81327;-55
2022/09/20 05:11:16;;;;;;;9.57;3.55;;;20.90;60.90;;;;;;6166626;28;82945;-58
2022/09/20 05:14:17;;;;;;;8.63;3.25;;;20.90;60.70;;;;;;6167446;28;84828;-56
2022/09/20 05:17:17;;;;;;;5.65;3.03;;;20.80;61.00;;;;;;6152400;28;80830;-58
2022/09/20 05:20:21;;;;;;;5.57;3.00;;;20.90;61.00;;;;;;6157973;28;80323;-55
2022/09/20 05:23:21;;;;;;;11.77;3.08;;;20.90;61.10;;;;;;6158985;28;80412;-56
2022/09/20 05:26:23;;;;;;;6.15;2.65;;;20.90;61.20;;;;;;6169283;28;80557;-55
2022/09/20 05:29:24;;;;;;;7.65;3.83;;;20.90;61.30;;;;;;6159865;28;85789;-52
2022/09/20 05:32:24;;;;;;;5.72;2.90;;;20.90;61.30;;;;;;6153388;28;80756;-56
2022/09/20 05:35:25;;;;;;;4.95;3.08;;;20.90;61.80;;;;;;6178552;28;79980;-55
2022/09/20 05:38:25;;;;;;;4.15;2.75;;;20.90;61.90;;;;;;6149060;28;81319;-55
2022/09/20 05:41:28;;;;;;;9.35;3.50;;;20.90;61.70;;;;;;6161170;28;80442;-54
2022/09/20 05:44:29;;;;;;;125.78;45.15;;;20.90;61.50;;;;;;6169975;28;85785;-56
2022/09/20 05:47:30;;;;;;;305.55;100.13;;;20.90;61.50;;;;;;6162720;28;84205;-54
2022/09/20 05:50:30;;;;;;;950.30;404.02;;;20.90;61.40;;;;;;6167843;28;85270;-56
2022/09/20 05:53:31;;;;;;;1292.43;554.00;;;21.00;61.70;;;;;;6165910;28;85574;-55
2022/09/20 05:56:31;;;;;;;1051.95;464.77;;;20.90;61.80;;;;;;6164352;28;85853;-50
2022/09/20 05:59:32;;;;;;;986.35;435.20;;;20.90;61.80;;;;;;6165225;28;85871;-55
2022/09/20 06:02:32;;;;;;;959.67;417.40;;;20.90;61.70;;;;;;6165034;28;85469;-54
2022/09/20 06:05:33;;;;;;;877.40;374.20;;;20.90;61.40;;;;;;6164178;28;86040;-54
2022/09/20 06:08:33;;;;;;;789.72;338.83;;;20.90;61.30;;;;;;6161002;28;88176;-54
2022/09/20 06:11:34;;;;;;;708.35;298.13;;;20.90;61.20;;;;;;6149883;28;86173;-52
2022/09/20 06:14:35;;;;;;;663.80;279.70;;;20.90;61.50;;;;;;6156487;28;85484;-54
2022/09/20 06:17:35;;;;;;;643.58;261.35;;;20.90;61.40;;;;;;6169029;28;88573;-54
2022/09/20 06:20:36;;;;;;;581.10;236.85;;;20.90;61.50;;;;;;6163160;28;86596;-54
2022/09/20 06:23:36;;;;;;;514.47;203.32;;;20.90;61.40;;;;;;6152172;28;85448;-53
2022/09/20 06:26:37;;;;;;;492.70;187.23;;;20.90;61.30;;;;;;6165002;28;85607;-58
2022/09/20 06:29:37;;;;;;;482.27;175.88;;;20.90;61.40;;;;;;6160450;28;87264;-56
2022/09/20 06:32:39;;;;;;;438.73;159.35;;;20.90;61.30;;;;;;6159888;28;87055;-56
2022/09/20 06:35:39;;;;;;;402.33;146.60;;;20.90;61.40;;;;;;6166232;28;85611;-57
2022/09/20 06:41:59;;;;;;;363.10;131.75;;;20.90;61.30;;;;;;6159936;28;85882;-60
2022/09/20 06:44:59;;;;;;;322.50;118.20;;;20.90;61.30;;;;;;6174525;28;85230;-54
2022/09/20 06:48:01;;;;;;;294.05;113.72;;;20.90;61.20;;;;;;6169241;28;88843;-53
2022/09/20 06:51:01;;;;;;;293.40;105.75;;;20.90;61.30;;;;;;6162483;28;85438;-54
2022/09/20 06:54:02;;;;;;;278.77;101.82;;;20.90;61.30;;;;;;6154257;28;88886;-60
2022/09/20 06:57:02;;;;;;;244.98;89.68;;;20.90;61.40;;;;;;6171885;28;85590;-59
2022/09/20 07:00:03;;;;;;;226.65;86.70;;;20.90;61.40;;;;;;6174795;28;85302;-60
2022/09/20 07:03:03;;;;;;;210.85;79.90;;;20.90;61.40;;;;;;6169984;28;84823;-60
2022/09/20 07:06:04;;;;;;;198.23;75.72;;;20.90;61.60;;;;;;6163008;28;82967;-59
2022/09/20 07:09:04;;;;;;;199.40;71.88;;;20.90;62.00;;;;;;6168006;28;83868;-60
2022/09/20 07:12:08;;;;;;;177.23;64.15;;;20.90;61.90;;;;;;6162251;28;84061;-61
2022/09/20 07:15:09;;;;;;;171.88;65.90;;;20.90;62.40;;;;;;6167128;28;83225;-55
2022/09/20 07:18:09;;;;;;;158.50;61.30;;;20.90;62.00;;;;;;6153143;28;83263;-55
2022/09/20 07:21:10;;;;;;;135.32;52.03;;;20.90;61.90;;;;;;6173231;28;83386;-55
2022/09/20 07:24:13;;;;;;;154.20;57.63;;;20.90;62.40;;;;;;6157742;28;84533;-53
2022/09/20 07:27:13;;;;;;;128.10;50.67;;;21.00;62.50;;;;;;6147466;28;86766;-53
2022/09/20 07:30:14;;;;;;;134.98;49.05;;;21.00;62.60;;;;;;6136947;28;84181;-54
2022/09/20 07:33:19;;;;;;;119.40;44.70;;;21.00;62.40;;;;;;6139147;28;84467;-53
2022/09/20 07:36:19;;;;;;;105.37;40.57;;;21.00;62.50;;;;;;6145768;28;84107;-61
2022/09/20 07:39:20;;;;;;;114.55;40.13;;;21.00;62.20;;;;;;6157808;28;83805;-64
2022/09/20 07:42:20;;;;;;;100.55;38.47;;;21.00;62.20;;;;;;6142680;28;84339;-53
2022/09/20 07:45:21;;;;;;;94.80;35.65;;;21.00;62.30;;;;;;6151414;28;82981;-54
2022/09/20 07:48:21;;;;;;;95.78;35.22;;;21.00;62.60;;;;;;6147689;28;83570;-52
2022/09/20 07:51:22;;;;;;;95.85;32.85;;;21.00;62.70;;;;;;6149328;28;83242;-52
2022/09/20 07:54:22;;;;;;;77.38;28.67;;;21.00;62.50;;;;;;6157206;28;83583;-50
2022/09/20 07:57:23;;;;;;;76.75;29.83;;;21.00;62.20;;;;;;6157312;28;83215;-50
2022/09/20 08:00:23;;;;;;;84.00;28.75;;;21.00;62.30;;;;;;6169247;28;83231;-48
2022/09/20 08:03:24;;;;;;;78.35;28.10;;;21.00;62.20;;;;;;6167007;28;83551;-51
2022/09/20 08:06:25;;;;;;;79.90;28.10;;;21.00;62.00;;;;;;6153455;28;83027;-50
2022/09/20 08:09:26;;;;;;;70.80;26.17;;;21.00;61.90;;;;;;6171615;28;83955;-52
2022/09/20 08:12:26;;;;;;;64.38;24.88;;;21.00;61.90;;;;;;6162528;28;83488;-51
2022/09/20 08:15:28;;;;;;;173.07;59.72;;;21.00;62.20;;;;;;6167692;28;82812;-50
2022/09/20 08:18:28;;;;;;;693.60;296.52;;;21.10;62.50;;;;;;6171721;28;86750;-49
2022/09/20 08:21:30;;;;;;;1014.88;447.55;;;21.20;62.80;;;;;;6169686;28;85753;-51
2022/09/20 08:24:31;;;;;;;1071.15;485.85;;;21.20;62.70;;;;;;6169002;28;85995;-50
2022/09/20 08:27:31;;;;;;;888.53;395.00;;;21.20;62.70;;;;;;6153579;28;85378;-52
2022/09/20 08:30:32;;;;;;;766.03;342.45;;;21.20;62.70;;;;;;6156536;28;86867;-54
2022/09/20 08:33:32;;;;;;;780.97;333.95;;;21.20;62.40;;;;;;6145855;28;85648;-52
2022/09/20 08:36:33;;;;;;;711.67;309.40;;;21.20;62.50;;;;;;6159460;28;86009;-51
2022/09/20 08:39:33;;;;;;;649.05;272.88;;;21.20;62.30;;;;;;6163594;28;85534;-51
2022/09/20 08:42:35;;;;;;;613.03;252.15;;;21.20;62.10;;;;;;6165084;28;85599;-54
2022/09/20 08:45:35;;;;;;;595.85;244.00;;;21.30;62.10;;;;;;6152743;28;86120;-51
2022/09/20 08:48:36;;;;;;;534.80;225.68;;;21.20;61.90;;;;;;6165709;28;85965;-53
2022/09/20 08:51:36;;;;;;;520.00;213.10;;;21.30;62.10;;;;;;6168633;28;86354;-51
2022/09/20 08:54:37;;;;;;;529.22;204.38;;;21.30;61.90;;;;;;6154847;28;85658;-51
2022/09/20 08:57:37;;;;;;;479.02;181.98;;;21.30;62.30;;;;;;6147581;28;86036;-53
2022/09/20 09:00:38;;;;;;;450.08;172.27;;;21.30;62.30;;;;;;6156946;28;85547;-52
2022/09/20 09:03:38;;;;;;;437.48;164.75;;;21.20;62.00;;;;;;6149228;28;86619;-53
2022/09/20 09:06:39;;;;;;;416.23;154.40;;;21.30;62.40;;;;;;6169481;28;86330;-54
2022/09/20 09:09:40;;;;;;;378.48;142.57;;;21.30;62.40;;;;;;6144405;28;87288;-55
2022/09/20 09:12:40;;;;;;;396.80;139.88;;;21.30;62.10;;;;;;6148452;28;86906;-55
2022/09/20 09:15:41;;;;;;;331.33;134.25;;;21.30;62.90;;;;;;6169037;28;91560;-57
2022/09/20 09:18:41;;;;;;;334.33;125.93;;;21.30;62.80;;;;;;6168624;28;85571;-56
2022/09/20 09:21:42;;;;;;;328.65;120.80;;;21.30;62.90;;;;;;6171108;28;88341;-53
2022/09/20 09:24:42;;;;;;;296.85;114.25;;;21.40;62.80;;;;;;6168297;28;85952;-54
2022/09/20 09:27:43;;;;;;;291.58;109.10;;;21.50;62.50;;;;;;6165498;28;85832;-52
2022/09/20 09:30:43;;;;;;;275.45;104.95;;;21.60;62.20;;;;;;6161084;28;85833;-57
2022/09/20 09:33:45;;;;;;;240.27;97.47;;;21.60;62.00;;;;;;6164968;28;86696;-56
2022/09/20 09:36:46;;;;;;;240.52;94.22;;;21.70;62.00;;;;;;6158466;28;85346;-57
2022/09/20 09:39:46;;;;;;;232.48;83.95;;;21.70;62.00;;;;;;6164725;28;83373;-55
2022/09/20 09:42:47;;;;;;;196.65;73.18;;;21.70;61.20;;;;;;6166444;28;83432;-53
2022/09/20 09:45:48;;;;;;;186.65;67.78;;;21.70;61.00;;;;;;6161704;28;88458;-55
2022/09/20 09:48:48;;;;;;;144.60;59.45;;;21.70;60.00;;;;;;6171609;28;83052;-54
2022/09/20 09:51:49;;;;;;;140.25;53.03;;;21.80;59.70;;;;;;6170523;28;83139;-54
2022/09/20 09:54:50;;;;;;;153.60;56.55;;;21.80;59.20;;;;;;6167792;28;82945;-54
2022/09/20 09:57:53;;;;;;;111.18;46.05;;;21.80;60.30;;;;;;6167295;28;82986;-52
2022/09/20 10:00:53;;;;;;;111.60;42.35;;;21.80;60.20;;;;;;6167203;28;83315;-52
2022/09/20 10:03:54;;;;;;;86.65;32.67;;;21.80;60.70;;;;;;6165695;28;85210;-53
2022/09/20 10:06:54;;;;;;;65.93;27.90;;;21.80;61.20;;;;;;6152994;28;85817;-54
2022/09/20 10:09:55;;;;;;;65.03;27.20;;;21.90;60.90;;;;;;6159024;28;83595;-54
2022/09/20 10:12:55;;;;;;;57.15;24.05;;;21.90;60.50;;;;;;6159426;28;87489;-53
2022/09/20 10:15:56;;;;;;;49.25;20.27;;;21.90;59.60;;;;;;6168189;28;85848;-55
2022/09/20 10:18:56;;;;;;;46.83;19.70;;;22.00;59.20;;;;;;6175612;28;83203;-52
2022/09/20 10:21:56;;;;;;;43.38;18.00;;;22.00;59.20;;;;;;6172275;28;84935;-51
2022/09/20 10:24:58;;;;;;;30.48;13.20;;;21.90;59.00;;;;;;6167682;28;84470;-53
2022/09/20 10:27:58;;;;;;;26.75;12.25;;;21.90;58.50;;;;;;6167828;28;83107;-54
2022/09/20 10:31:00;;;;;;;24.77;9.88;;;21.90;59.00;;;;;;6162371;28;83961;-50
2022/09/20 10:34:02;;;;;;;20.83;9.38;;;21.90;58.00;;;;;;6168452;28;82862;-54
2022/09/20 10:37:02;;;;;;;16.63;7.88;;;21.90;58.30;;;;;;6165524;28;84618;-52
2022/09/20 10:40:03;;;;;;;17.20;8.48;;;21.80;58.30;;;;;;6173726;28;80395;-54
2022/09/20 10:43:15;;;;;;;17.13;7.40;;;21.70;58.00;;;;;;6171479;28;80333;-54
2022/09/20 10:46:16;;;;;;;16.83;6.78;;;21.70;58.10;;;;;;6145419;28;85263;-54
2022/09/20 10:49:17;;;;;;;17.98;6.75;;;21.70;58.20;;;;;;6172749;28;83723;-50
2022/09/20 10:52:17;;;;;;;11.93;5.53;;;21.60;58.70;;;;;;6174495;28;80586;-56
2022/09/20 10:55:19;;;;;;;10.68;4.75;;;21.60;58.50;;;;;;6172839;28;83660;-53
2022/09/20 10:58:19;;;;;;;14.05;4.70;;;21.50;57.70;;;;;;6172312;28;80449;-52
2022/09/20 11:01:20;;;;;;;6.15;4.22;;;21.50;57.80;;;;;;6174938;28;82233;-53
2022/09/20 11:04:20;;;;;;;8.00;4.32;;;21.50;57.60;;;;;;6170792;28;81609;-50
2022/09/20 11:07:21;;;;;;;10.13;5.05;;;21.50;57.50;;;;;;6139618;28;80455;-54
2022/09/20 11:10:23;;;;;;;8.75;3.83;;;21.40;57.10;;;;;;6171053;28;80387;-52
2022/09/20 11:13:23;;;;;;;9.07;3.75;;;21.40;57.40;;;;;;6151400;28;80929;-60
2022/09/20 11:16:24;;;;;;;7.90;3.83;;;21.40;57.40;;;;;;6157042;28;80267;-58
2022/09/20 11:19:25;;;;;;;6.35;3.58;;;21.30;57.80;;;;;;6155236;28;80410;-59
2022/09/20 11:22:26;;;;;;;9.68;3.60;;;21.40;58.10;;;;;;6158169;28;80451;-59
2022/09/20 11:25:26;;;;;;;5.63;3.55;;;21.40;58.10;;;;;;6160146;28;80281;-58
2022/09/20 11:28:27;;;;;;;7.35;3.60;;;21.50;57.70;;;;;;6160661;28;80842;-60
2022/09/20 11:31:27;;;;;;;5.78;3.55;;;21.60;57.60;;;;;;6173786;28;83898;-58
2022/09/20 11:34:28;;;;;;;6.97;3.50;;;21.60;57.30;;;;;;6175013;28;80452;-58
2022/09/20 11:37:29;;;;;;;5.20;3.17;;;21.70;57.40;;;;;;6177203;28;80309;-60
2022/09/20 11:40:29;;;;;;;9.63;3.83;;;21.70;57.60;;;;;;6182176;28;81718;-65
2022/09/20 11:43:30;;;;;;;4.65;2.63;;;21.60;57.60;;;;;;6164232;28;81808;-57
2022/09/20 11:46:30;;;;;;;4.20;3.20;;;21.60;57.00;;;;;;6175898;28;81677;-59
2022/09/20 11:49:31;;;;;;;3.35;2.40;;;21.60;56.50;;;;;;6178672;28;80351;-54
2022/09/20 11:52:31;;;;;;;3.47;2.03;;;21.50;56.00;;;;;;6173147;28;80459;-51
2022/09/20 11:55:32;;;;;;;4.50;2.67;;;21.50;55.50;;;;;;6154012;28;80812;-53
2022/09/20 11:58:32;;;;;;;3.35;2.03;;;21.50;55.70;;;;;;6171752;28;80720;-52
2022/09/20 12:01:33;;;;;;;5.95;2.55;;;21.60;56.10;;;;;;6174977;28;80413;-51
2022/09/20 12:04:33;;;;;;;3.58;2.35;;;21.50;55.90;;;;;;6174283;28;80632;-54
2022/09/20 12:07:34;;;;;;;3.85;2.35;;;21.40;56.30;;;;;;6180410;28;80633;-60
2022/09/20 12:10:34;;;;;;;4.10;2.65;;;21.50;56.40;;;;;;6176363;28;80074;-60
2022/09/20 12:13:35;;;;;;;2.15;1.95;;;21.50;55.90;;;;;;6162859;28;80185;-61
2022/09/20 12:16:35;;;;;;;2.72;2.20;;;21.40;55.20;;;;;;6181306;28;81432;-62
2022/09/20 12:19:37;;;;;;;4.95;2.20;;;21.40;56.10;;;;;;6178548;28;80222;-60
2022/09/20 12:22:38;;;;;;;3.05;2.33;;;21.50;55.00;;;;;;6159588;28;86348;-61
2022/09/20 12:25:38;;;;;;;5.13;1.90;;;21.50;55.40;;;;;;6165308;28;82892;-60
2022/09/20 12:28:39;;;;;;;3.97;2.10;;;21.60;55.10;;;;;;6162442;28;80678;-60
2022/09/20 12:31:40;;;;;;;3.28;2.17;;;21.70;54.70;;;;;;6157835;28;86602;-61
2022/09/20 12:34:41;;;;;;;2.83;2.20;;;21.70;54.40;;;;;;6176358;28;80545;-59
2022/09/20 12:37:41;;;;;;;2.40;2.20;;;21.70;54.10;;;;;;6190245;28;81066;-61
2022/09/20 12:40:41;;;;;;;4.47;2.38;;;21.80;55.10;;;;;;6160980;28;86679;-59
2022/09/20 12:43:42;;;;;;;4.35;2.30;;;21.80;55.10;;;;;;6165407;28;81124;-59
2022/09/20 12:46:42;;;;;;;5.03;2.13;;;21.90;55.00;;;;;;6160356;28;87705;-59
2022/09/20 12:53:03;;;;;;;4.13;2.30;;;21.80;54.20;;;;;;6165585;28;85041;-58
2022/09/20 12:56:03;;;;;;;3.22;1.98;;;21.70;55.30;;;;;;6172508;28;80931;-59
2022/09/20 12:59:06;;;;;;;2.22;1.92;;;21.70;56.20;;;;;;6170503;28;80301;-59
2022/09/20 13:02:07;;;;;;;5.38;3.10;;;21.70;55.60;;;;;;6156432;28;80648;-59
2022/09/20 13:05:13;;;;;;;74.38;29.27;;;21.70;55.40;;;;;;6155745;28;80736;-59
2022/09/20 13:08:14;;;;;;;140.13;57.78;;;21.70;54.90;;;;;;6157109;28;83077;-60
2022/09/20 13:11:18;;;;;;;145.50;66.85;;;21.80;57.10;;;;;;6142706;28;86173;-60
2022/09/20 13:14:18;;;;;;;196.60;86.00;;;21.80;57.60;;;;;;6157233;28;84193;-60
2022/09/20 13:17:19;;;;;;;336.77;141.90;;;21.80;57.60;;;;;;6172960;28;83167;-59
2022/09/20 13:20:19;;;;;;;282.92;120.45;;;21.80;57.30;;;;;;6170593;28;85422;-60
2022/09/20 13:23:20;;;;;;;286.67;116.45;;;21.80;57.60;;;;;;6170861;28;85751;-58
2022/09/20 13:26:21;;;;;;;240.68;103.47;;;21.80;58.50;;;;;;6154209;28;86465;-58
2022/09/20 13:29:21;;;;;;;305.08;129.50;;;21.80;57.80;;;;;;6157907;28;85336;-59
2022/09/20 13:32:22;;;;;;;286.00;127.78;;;21.70;58.00;;;;;;6168678;28;86023;-61
2022/09/20 13:35:22;;;;;;;370.73;159.15;;;21.80;57.80;;;;;;6163634;28;86835;-59
2022/09/20 13:38:23;;;;;;;482.67;207.02;;;21.70;57.80;;;;;;6166267;28;85519;-59
2022/09/20 13:41:24;;;;;;;374.77;159.65;;;21.70;57.80;;;;;;6169042;28;92619;-59
2022/09/20 13:44:24;;;;;;;335.33;144.85;;;21.70;57.80;;;;;;6159721;28;88951;-59
2022/09/20 13:47:25;;;;;;;320.98;133.68;;;21.70;57.80;;;;;;6160510;28;85636;-59
2022/09/20 13:50:25;;;;;;;273.33;113.53;;;21.70;58.30;;;;;;6156358;28;87432;-60
2022/09/20 13:53:26;;;;;;;238.27;96.35;;;21.70;58.10;;;;;;6152855;28;85950;-60
2022/09/20 13:56:27;;;;;;;186.70;77.03;;;21.70;58.00;;;;;;6155995;28;85185;-60
2022/09/20 13:59:27;;;;;;;162.23;72.38;;;21.80;57.70;;;;;;6170635;28;83117;-61
2022/09/20 14:02:28;;;;;;;188.43;74.30;;;21.80;57.80;;;;;;6158266;28;88975;-60
2022/09/20 14:05:28;;;;;;;147.15;61.58;;;21.80;57.80;;;;;;6151458;28;86540;-59
2022/09/20 14:08:29;;;;;;;137.75;55.13;;;21.80;57.70;;;;;;6156263;28;84096;-59
2022/09/20 14:11:30;;;;;;;122.78;50.33;;;21.80;57.10;;;;;;6157702;28;82830;-60
2022/09/20 14:14:30;;;;;;;114.72;45.10;;;21.80;57.30;;;;;;6154567;28;85434;-59
2022/09/20 14:17:31;;;;;;;87.40;39.35;;;21.80;56.60;;;;;;6155727;28;83617;-59
2022/09/20 14:20:31;;;;;;;83.90;36.95;;;21.80;56.30;;;;;;6144210;28;83410;-58
2022/09/20 14:23:31;;;;;;;85.68;36.25;;;21.80;55.80;;;;;;6153179;28;83077;-59
2022/09/20 14:26:35;;;;;;;69.78;30.88;;;21.70;55.60;;;;;;6155653;28;83378;-59
2022/09/20 14:29:36;;;;;;;63.72;26.70;;;21.80;55.50;;;;;;6145832;28;83941;-58
2022/09/20 14:32:36;;;;;;;62.25;26.73;;;21.70;55.10;;;;;;6154662;28;83065;-58
2022/09/20 14:35:37;;;;;;;54.10;22.65;;;21.80;55.10;;;;;;6157113;28;85945;-58
2022/09/20 14:38:37;;;;;;;47.50;20.08;;;21.80;54.70;;;;;;6148141;28;82805;-57
2022/09/20 14:41:38;;;;;;;41.10;18.50;;;21.80;54.70;;;;;;6154164;28;86622;-59
2022/09/20 14:44:39;;;;;;;41.88;18.05;;;21.80;54.50;;;;;;6163907;28;83117;-59
2022/09/20 14:47:39;;;;;;;45.92;17.13;;;21.80;54.50;;;;;;6170888;28;83469;-59
2022/09/20 14:50:40;;;;;;;46.10;16.25;;;21.80;54.70;;;;;;6171475;28;82991;-60
2022/09/20 14:53:40;;;;;;;34.40;14.00;;;21.70;54.70;;;;;;6170352;28;84402;-57
2022/09/20 14:56:41;;;;;;;27.90;11.95;;;21.70;54.70;;;;;;6173141;28;82894;-60
2022/09/20 14:59:41;;;;;;;31.55;13.40;;;21.70;54.70;;;;;;6159189;28;82794;-59
2022/09/20 15:02:42;;;;;;;22.73;10.68;;;21.60;54.80;;;;;;6147895;28;88166;-59
2022/09/20 15:05:42;;;;;;;20.60;10.55;;;21.60;54.80;;;;;;6164110;28;83143;-60
2022/09/20 15:08:43;;;;;;;32.22;10.35;;;21.60;54.70;;;;;;6144242;28;89016;-60
2022/09/20 15:11:43;;;;;;;19.95;9.93;;;21.50;54.90;;;;;;6160534;28;83112;-59
2022/09/20 15:14:44;;;;;;;17.20;8.55;;;21.50;54.80;;;;;;6146961;28;88132;-59
2022/09/20 15:17:44;;;;;;;18.88;8.38;;;21.50;54.90;;;;;;6145102;28;81125;-59
2022/09/20 15:20:45;;;;;;;20.98;8.55;;;21.50;55.00;;;;;;6149861;28;80819;-58
2022/09/20 15:23:45;;;;;;;19.75;8.60;;;21.50;55.00;;;;;;6156400;28;80874;-58
2022/09/20 15:26:46;;;;;;;19.83;7.68;;;21.50;55.10;;;;;;6151371;28;80962;-58
2022/09/20 15:29:46;;;;;;;17.90;6.28;;;21.40;55.10;;;;;;6151566;28;81029;-52
2022/09/20 15:32:47;;;;;;;13.48;5.75;;;21.40;55.20;;;;;;6171220;28;80119;-53
2022/09/20 15:35:47;;;;;;;9.27;5.47;;;21.40;55.50;;;;;;6159062;28;80839;-55